Elko, NV

12:51 AM PDT on April 30, 2017 (GMT -0700)
Elko Regional | | Change Station

Elev 5141 ft 40.82 °N, 115.79 °W | Updated 55 minutes ago

Clear
Clear
39 °F
Feels Like 37 °F
N
4
Wind Variable Wind from ESE

Today
High -- | Low -- °F
--% Chance of Precip.
Yesterday
High -- | Low -- °F
Precip. -- in
Pressure 30.21 in
Visibility 10.0 miles
Clouds Clear
Windchill 37 °F
Dew Point 29 °F
Humidity 67%
Rainfall 0.00 in
Snow Depth Not available.
5:42 AM 7:38 PM
Waxing Crescent, 20% visible
METAR KEKO 300656Z AUTO 12003KT 10SM CLR 04/M02 A3022 RMK AO2 SLP228 T00391017
Pressure 30.21 in
Visibility 10.0 miles
Clouds Clear
Windchill 37 °F
Dew Point 29 °F
Humidity 67%
Rainfall 0.00 in
Snow Depth Not available.
5:42 AM 7:38 PM
Waxing Crescent, 20% visible
METAR KEKO 300656Z AUTO 12003KT 10SM CLR 04/M02 A3022 RMK AO2 SLP228 T00391017

Get Severe Weather Alerts

Thanks for signing up!

Be on the lookout for a verification email in your inbox.

You'll start receiving the daily forecast at 8 AM.

×

10-Day Weather Forecast

Almanac

Astronomy

Apr. 30, 2017 Rise Set
Actual Time
Civil Twilight
Nautical Twilight
Astronomical Twilight
Moon
Length of Visible Light
Length of Day
Tomorrow will be .
, % of the Moon is Illuminated

Today's Extremes

State Highs State Lows

Community

WunderPhotos

WunderBlog® & News

Nearby

Air Quality

  Air Quality AQ Index Pollutant
Not available.

Snow Depth

Station Depth Elevation

Earthquake Activity

City Distance Mag. Time & Date
Minimum magnitude displayed is 2.5.

Coastal Water Temperatures

Place Temperature

Stations

Nearby Weather Stations

Station Location Temp. Windchill Dew Point Humidity Wind Precip. Elev Updated Type
                   

Watches & Warnings

There are currently no watches in effect.